Weather reports worldwide

Advertisment
Valencia, Spain (8285): temperature & dewpoint: 12.10.2018 03:00:00 - 18.10.2018 03:00:00 (CEST)Valencia, Spain (8285): wind speed & gusts: 12.10.2018 03:00:00 - 18.10.2018 03:00:00 (CEST)Valencia, Spain (8285): wind direction: 12.10.2018 03:00:00 - 18.10.2018 03:00:00 (CEST)Valencia, Spain (8285): precipitation: 12.10.2018 03:00:00 - 18.10.2018 03:00:00 (CEST)
Date & Time tt [°C] td [°C] ff [km/h] ff [kn] fx [km/h] fx [kn] dd rr [mm]
18.10.2018 03:00:00 17,0 13,6 3 2 6 4 W 0,0
18.10.2018 02:00:00 17,2 13,6 2 1 7 4 W -
18.10.2018 01:00:00 17,8 13,8 3 2 7 4 W 0,0
18.10.2018 00:00:00 18,3 14,2 3 2 6 4 WSW 0,0
17.10.2018 23:00:00 18,7 14,4 3 1 9 5 NNW 0,0
17.10.2018 22:00:00 18,9 14,1 1 1 5 3 N 0,0
17.10.2018 21:00:00 19,6 13,9 2 1 6 4 NNE 0,0
17.10.2018 20:00:00 20,5 13,9 1 0 15 8 NNE -
17.10.2018 19:00:00 21,4 13,6 5 3 15 8 ESE 0,0
17.10.2018 18:00:00 21,9 11,6 2 1 16 9 NE 0,0
17.10.2018 17:00:00 23,0 10,4 3 2 17 9 NNE 0,0
17.10.2018 16:00:00 24,3 9,8 3 2 14 8 SE 0,0
17.10.2018 15:00:00 24,2 9,8 2 1 18 10 SSE 0,0
17.10.2018 14:00:00 23,5 9,2 5 3 15 8 E -
17.10.2018 13:00:00 24,2 10,5 4 2 13 7 ESE 0,0
17.10.2018 12:00:00 23,0 10,0 1 1 11 6 NNE 0,0
17.10.2018 11:00:00 19,7 10,4 4 2 12 7 W 0,0
17.10.2018 10:00:00 17,7 10,0 5 3 12 7 WSW 0,0
17.10.2018 09:00:00 16,2 10,0 1 1 13 7 W 0,0
17.10.2018 08:00:00 16,3 10,2 6 3 16 9 WNW -
17.10.2018 07:00:00 16,4 10,6 6 3 15 8 NW 0,0
17.10.2018 06:00:00 16,1 10,6 5 3 12 6 NW 0,0
17.10.2018 05:00:00 16,2 10,9 3 2 8 5 NW 0,0
17.10.2018 04:00:00 16,5 11,2 2 1 6 3 W 0,0
17.10.2018 03:00:00 17,6 11,0 2 1 12 6 W 0,0
17.10.2018 02:00:00 18,0 11,1 3 2 12 6 N -
17.10.2018 01:00:00 18,7 11,6 5 3 12 7 N 0,0
17.10.2018 00:00:00 19,1 11,9 6 3 13 7 N 0,0
16.10.2018 23:00:00 19,6 12,8 8 4 17 9 N 0,0
16.10.2018 22:00:00 19,8 13,5 10 5 21 11 N 0,0
16.10.2018 21:00:00 20,2 13,5 7 4 17 9 N 0,0
16.10.2018 20:00:00 20,9 12,8 7 4 19 11 N -
16.10.2018 19:00:00 21,1 12,5 9 5 22 12 N 0,0
16.10.2018 18:00:00 21,8 13,0 6 3 23 12 NNE 0,0
16.10.2018 17:00:00 22,2 12,4 8 4 25 13 NNE 0,0
16.10.2018 16:00:00 22,9 13,4 7 4 32 18 NNE 0,0
16.10.2018 15:00:00 23,3 14,3 8 4 24 13 NNE 0,0
16.10.2018 14:00:00 23,3 13,2 3 2 22 12 ENE -
16.10.2018 13:00:00 21,7 12,0 5 3 24 13 NNE 0,0
16.10.2018 12:00:00 23,1 11,8 10 6 26 14 N 0,0
16.10.2018 11:00:00 19,9 11,3 2 1 11 6 N 0,0
16.10.2018 10:00:00 16,6 9,0 1 0 7 4 SW 0,0
16.10.2018 09:00:00 14,5 7,3 1 1 8 4 WNW 0,0
16.10.2018 08:00:00 14,5 6,5 3 2 8 4 W -
16.10.2018 07:00:00 14,7 6,2 1 1 6 4 WNW 0,0
16.10.2018 06:00:00 15,3 5,8 3 2 13 7 WSW 0,0
16.10.2018 05:00:00 15,6 5,8 5 3 15 8 W 0,0
16.10.2018 04:00:00 15,9 5,5 7 4 13 7 W 0,0
16.10.2018 03:00:00 16,2 5,5 1 1 11 6 W 0,0
16.10.2018 02:00:00 16,6 5,0 3 2 8 4 W -
16.10.2018 01:00:00 17,1 4,1 3 2 9 5 SSW 0,0
16.10.2018 00:00:00 17,9 2,7 5 3 12 6 WSW 0,0
15.10.2018 23:00:00 18,6 2,1 5 3 10 5 WSW 0,0
15.10.2018 22:00:00 19,2 1,7 7 4 15 8 WSW 0,0
15.10.2018 21:00:00 19,9 1,3 8 4 20 11 WSW 0,0
15.10.2018 20:00:00 20,9 2,3 8 5 20 11 SSW -
15.10.2018 19:00:00 22,3 3,4 9 5 26 14 SW 0,0
15.10.2018 18:00:00 22,8 3,8 10 6 31 17 WSW 0,0
15.10.2018 17:00:00 23,7 4,1 11 6 32 17 W 0,0
15.10.2018 16:00:00 23,5 3,9 16 9 42 23 WSW 0,0
15.10.2018 15:00:00 24,0 4,8 18 10 44 24 WSW 0,0
15.10.2018 14:00:00 24,6 4,8 10 5 26 14 W -
15.10.2018 13:00:00 23,7 5,1 5 3 28 15 NW 0,0
15.10.2018 12:00:00 21,9 5,8 7 4 23 12 WSW 0,0
15.10.2018 11:00:00 18,6 6,4 6 3 18 10 W 0,0
15.10.2018 10:00:00 16,4 5,6 9 5 22 12 WSW 0,0
15.10.2018 09:00:00 16,4 5,3 8 4 16 9 WSW 0,0
15.10.2018 08:00:00 15,9 4,6 5 3 15 8 SW -
15.10.2018 07:00:00 16,4 4,5 7 4 22 12 W 0,0
15.10.2018 06:00:00 16,6 3,9 13 7 27 15 W 0,0
15.10.2018 05:00:00 16,7 4,3 11 6 22 12 W 0,0
15.10.2018 04:00:00 16,4 5,3 10 6 23 13 W 0,0
15.10.2018 03:00:00 16,4 5,6 9 5 21 11 W 0,0
15.10.2018 02:00:00 16,7 5,3 8 5 28 15 WSW -
15.10.2018 01:00:00 16,8 5,5 9 5 25 14 W 0,0
15.10.2018 00:00:00 16,9 5,5 11 6 27 15 W 0,0
14.10.2018 23:00:00 17,1 6,2 11 6 29 16 W 0,0
14.10.2018 22:00:00 17,3 7,3 9 5 24 13 W 0,0
14.10.2018 21:00:00 17,1 10,9 0 0 24 13 WSW 0,0
14.10.2018 20:00:00 17,1 11,8 9 5 22 12 W -
14.10.2018 19:00:00 17,5 14,0 8 5 54 29 WSW 4,5
14.10.2018 18:00:00 20,6 16,0 7 4 16 8 ESE 0,0
14.10.2018 17:00:00 20,5 16,6 4 2 9 5 N 0,2
14.10.2018 16:00:00 20,2 15,6 3 1 11 6 NNW 0,1
14.10.2018 15:00:00 21,6 17,4 3 2 16 8 W 0,3
14.10.2018 14:00:00 22,3 17,0 4 2 22 12 SSW -
14.10.2018 13:00:00 22,9 15,0 9 5 20 11 SE 0,0
14.10.2018 12:00:00 22,4 16,4 1 1 12 7 SE 0,0
14.10.2018 11:00:00 22,2 16,9 4 2 10 5 SSW 0,0
14.10.2018 10:00:00 20,4 18,3 1 0 4 2 N 0,0
14.10.2018 09:00:00 19,3 17,5 3 1 5 3 NNW 0,0
14.10.2018 08:00:00 18,6 16,7 0 0 3 2 N -
14.10.2018 07:00:00 19,3 17,3 1 1 9 5 W 0,0
14.10.2018 06:00:00 19,9 17,9 4 2 9 5 SSW 0,0
14.10.2018 05:00:00 20,7 17,5 1 1 8 5 SSW 0,0
14.10.2018 04:00:00 21,4 17,4 2 1 11 6 ESE 0,0
14.10.2018 03:00:00 22,0 17,0 6 3 18 10 ESE 0,0
14.10.2018 02:00:00 22,4 17,3 5 3 18 10 E -
14.10.2018 01:00:00 22,2 17,4 1 0 11 6 E 0,0
14.10.2018 00:00:00 22,3 17,5 2 1 10 5 E 0,0
13.10.2018 23:00:00 22,0 17,1 3 1 10 6 E 0,0
13.10.2018 22:00:00 22,6 17,5 2 1 14 7 ESE 0,0
13.10.2018 21:00:00 22,4 17,3 1 0 14 7 SE 0,0
13.10.2018 20:00:00 22,8 17,3 6 4 15 8 ESE -
13.10.2018 19:00:00 23,0 17,0 10 5 22 12 ESE 0,0
13.10.2018 18:00:00 23,7 16,7 10 6 21 11 ESE 0,0
13.10.2018 17:00:00 24,4 16,4 10 6 20 11 ESE 0,0
13.10.2018 16:00:00 26,4 16,9 3 2 16 9 NNE 0,0
13.10.2018 15:00:00 26,3 16,6 5 3 16 9 E 0,0
13.10.2018 14:00:00 - - - - - - - -
13.10.2018 13:00:00 25,4 17,6 4 2 14 8 ENE 0,0
13.10.2018 12:00:00 23,7 16,7 3 1 9 5 N 0,0
13.10.2018 11:00:00 22,0 15,1 3 2 9 5 WSW 0,0
13.10.2018 10:00:00 20,4 14,7 3 2 8 4 WSW 0,0
13.10.2018 09:00:00 19,7 15,3 2 1 9 5 NW 0,0
13.10.2018 08:00:00 19,4 15,4 1 0 6 4 NW -
13.10.2018 07:00:00 19,6 15,6 2 1 6 3 WNW 0,0
13.10.2018 06:00:00 19,6 16,0 1 1 7 4 W 0,0
13.10.2018 05:00:00 19,5 16,6 1 0 6 4 NW 0,0
13.10.2018 04:00:00 20,1 17,1 0 0 6 3 NNW 0,0
13.10.2018 03:00:00 20,2 17,2 1 1 9 5 N 0,0
13.10.2018 02:00:00 20,6 17,6 2 1 7 4 N -
13.10.2018 01:00:00 21,0 17,8 3 2 11 6 N 0,0
13.10.2018 00:00:00 21,2 17,8 5 3 11 6 NNE 0,0
12.10.2018 23:00:00 21,6 18,4 6 4 14 8 N 0,0
12.10.2018 22:00:00 22,1 18,7 6 3 16 9 N 0,0
12.10.2018 21:00:00 22,3 17,2 5 3 10 5 N 0,0
12.10.2018 20:00:00 23,1 15,9 2 1 12 6 ESE -
12.10.2018 19:00:00 24,4 16,4 6 4 18 10 ESE 0,0
12.10.2018 18:00:00 24,5 14,9 10 5 19 11 ESE 0,0
12.10.2018 17:00:00 25,2 14,9 8 5 18 10 ESE 0,0
12.10.2018 16:00:00 26,1 14,2 5 3 21 11 ESE 0,0
12.10.2018 15:00:00 26,7 13,8 5 3 16 9 E 0,0
12.10.2018 14:00:00 26,7 14,1 3 2 14 8 E -
12.10.2018 13:00:00 27,0 14,4 3 2 12 7 NE 0,0
12.10.2018 12:00:00 25,5 13,1 1 0 7 4 NE 0,0
12.10.2018 11:00:00 21,9 13,0 2 1 6 3 NNE 0,0
12.10.2018 10:00:00 19,9 14,5 1 1 10 6 W 0,0
12.10.2018 09:00:00 17,8 14,5 0 0 9 5 N 0,0
12.10.2018 08:00:00 17,7 14,2 1 1 11 6 W -
12.10.2018 07:00:00 17,4 15,3 3 1 5 3 SSW 0,0
12.10.2018 06:00:00 17,7 15,7 1 1 4 2 SW 0,0
12.10.2018 05:00:00 18,6 16,4 3 1 6 4 SW 0,0
12.10.2018 04:00:00 19,0 16,6 4 2 8 4 SW 0,0
12.10.2018 03:00:00 19,0 16,8 0 0 5 3 N 0,0

tt = temperature
td = dewpoint
ff = wind speed
fx = gusts
dd = wind direction
rr = precipitation

Next stations